sensor_id;sensor_type;location;lat;lon;timestamp;P1;durP1;ratioP1;P2;durP2;ratioP2
36291;SDS011;22327;51.208;6.418;2023-03-19T00:01:57;4.45;;;1.73;;
36291;SDS011;22327;51.208;6.418;2023-03-19T00:04:23;2.35;;;1.40;;
36291;SDS011;22327;51.208;6.418;2023-03-19T00:06:50;1.48;;;1.15;;
36291;SDS011;22327;51.208;6.418;2023-03-19T00:09:16;2.70;;;1.50;;
36291;SDS011;22327;51.208;6.418;2023-03-19T00:11:42;2.30;;;1.50;;
36291;SDS011;22327;51.208;6.418;2023-03-19T00:14:08;1.70;;;1.33;;
36291;SDS011;22327;51.208;6.418;2023-03-19T00:16:33;2.00;;;1.40;;
36291;SDS011;22327;51.208;6.418;2023-03-19T00:18:59;1.63;;;1.40;;
36291;SDS011;22327;51.208;6.418;2023-03-19T00:21:25;2.70;;;1.80;;
36291;SDS011;22327;51.208;6.418;2023-03-19T00:23:50;3.22;;;1.40;;
36291;SDS011;22327;51.208;6.418;2023-03-19T00:26:16;3.58;;;2.15;;
36291;SDS011;22327;51.208;6.418;2023-03-19T00:28:42;3.47;;;2.17;;
36291;SDS011;22327;51.208;6.418;2023-03-19T00:31:11;2.70;;;2.13;;
36291;SDS011;22327;51.208;6.418;2023-03-19T00:33:39;3.15;;;1.80;;
36291;SDS011;22327;51.208;6.418;2023-03-19T00:36:05;3.83;;;2.20;;
36291;SDS011;22327;51.208;6.418;2023-03-19T00:38:31;2.78;;;1.50;;
36291;SDS011;22327;51.208;6.418;2023-03-19T00:40:58;2.05;;;1.50;;
36291;SDS011;22327;51.208;6.418;2023-03-19T00:43:23;2.33;;;1.52;;
36291;SDS011;22327;51.208;6.418;2023-03-19T00:45:49;3.28;;;1.65;;
36291;SDS011;22327;51.208;6.418;2023-03-19T00:48:16;2.95;;;1.58;;
36291;SDS011;22327;51.208;6.418;2023-03-19T00:50:41;1.88;;;1.70;;
36291;SDS011;22327;51.208;6.418;2023-03-19T00:53:07;2.60;;;1.80;;
36291;SDS011;22327;51.208;6.418;2023-03-19T00:55:32;2.20;;;1.90;;
36291;SDS011;22327;51.208;6.418;2023-03-19T00:57:58;1.98;;;1.58;;
36291;SDS011;22327;51.208;6.418;2023-03-19T01:00:23;2.97;;;1.30;;
36291;SDS011;22327;51.208;6.418;2023-03-19T01:02:49;2.35;;;1.55;;
36291;SDS011;22327;51.208;6.418;2023-03-19T01:05:14;1.65;;;1.55;;
36291;SDS011;22327;51.208;6.418;2023-03-19T01:07:40;3.25;;;1.70;;
36291;SDS011;22327;51.208;6.418;2023-03-19T01:10:06;2.38;;;1.50;;
36291;SDS011;22327;51.208;6.418;2023-03-19T01:12:32;2.35;;;1.30;;
36291;SDS011;22327;51.208;6.418;2023-03-19T01:14:58;2.15;;;1.60;;
36291;SDS011;22327;51.208;6.418;2023-03-19T01:17:23;2.15;;;1.50;;
36291;SDS011;22327;51.208;6.418;2023-03-19T01:19:49;2.63;;;1.48;;
36291;SDS011;22327;51.208;6.418;2023-03-19T01:22:15;1.90;;;1.27;;
36291;SDS011;22327;51.208;6.418;2023-03-19T01:24:41;3.38;;;1.50;;
36291;SDS011;22327;51.208;6.418;2023-03-19T01:27:07;2.88;;;1.50;;
36291;SDS011;22327;51.208;6.418;2023-03-19T01:29:33;2.25;;;1.40;;
36291;SDS011;22327;51.208;6.418;2023-03-19T01:31:59;3.22;;;1.70;;
36291;SDS011;22327;51.208;6.418;2023-03-19T01:34:25;3.13;;;1.50;;
36291;SDS011;22327;51.208;6.418;2023-03-19T01:36:51;2.78;;;1.60;;
36291;SDS011;22327;51.208;6.418;2023-03-19T01:39:16;2.67;;;1.50;;
36291;SDS011;22327;51.208;6.418;2023-03-19T01:41:42;4.40;;;1.60;;
36291;SDS011;22327;51.208;6.418;2023-03-19T01:44:24;2.70;;;1.40;;
36291;SDS011;22327;51.208;6.418;2023-03-19T01:46:57;2.25;;;1.50;;
36291;SDS011;22327;51.208;6.418;2023-03-19T01:49:26;2.25;;;1.60;;
36291;SDS011;22327;51.208;6.418;2023-03-19T01:51:53;2.20;;;1.45;;
36291;SDS011;22327;51.208;6.418;2023-03-19T01:54:20;2.70;;;1.30;;
36291;SDS011;22327;51.208;6.418;2023-03-19T01:56:49;2.92;;;1.65;;
36291;SDS011;22327;51.208;6.418;2023-03-19T01:59:19;3.10;;;1.70;;
36291;SDS011;22327;51.208;6.418;2023-03-19T02:02:22;2.03;;;1.33;;
36291;SDS011;22327;51.208;6.418;2023-03-19T02:04:41;2.90;;;1.60;;
36291;SDS011;22327;51.208;6.418;2023-03-19T02:07:08;4.13;;;2.05;;
36291;SDS011;22327;51.208;6.418;2023-03-19T02:09:35;4.35;;;1.38;;
36291;SDS011;22327;51.208;6.418;2023-03-19T02:12:01;2.58;;;1.67;;
36291;SDS011;22327;51.208;6.418;2023-03-19T02:14:27;2.10;;;1.50;;
36291;SDS011;22327;51.208;6.418;2023-03-19T02:16:53;2.38;;;1.63;;
36291;SDS011;22327;51.208;6.418;2023-03-19T02:19:37;3.50;;;1.70;;
36291;SDS011;22327;51.208;6.418;2023-03-19T02:22:12;1.95;;;1.63;;
36291;SDS011;22327;51.208;6.418;2023-03-19T02:25:26;2.42;;;1.67;;
36291;SDS011;22327;51.208;6.418;2023-03-19T02:27:43;3.50;;;1.73;;
36291;SDS011;22327;51.208;6.418;2023-03-19T02:30:19;3.55;;;2.00;;
36291;SDS011;22327;51.208;6.418;2023-03-19T02:32:53;3.88;;;2.22;;
36291;SDS011;22327;51.208;6.418;2023-03-19T02:35:18;4.10;;;2.00;;
36291;SDS011;22327;51.208;6.418;2023-03-19T02:37:44;2.63;;;1.88;;
36291;SDS011;22327;51.208;6.418;2023-03-19T02:40:10;2.25;;;2.05;;
36291;SDS011;22327;51.208;6.418;2023-03-19T02:42:58;4.43;;;1.98;;
36291;SDS011;22327;51.208;6.418;2023-03-19T02:45:26;3.13;;;1.77;;
36291;SDS011;22327;51.208;6.418;2023-03-19T02:47:53;3.58;;;1.85;;
36291;SDS011;22327;51.208;6.418;2023-03-19T02:50:19;2.30;;;1.85;;
36291;SDS011;22327;51.208;6.418;2023-03-19T02:52:45;3.47;;;1.88;;
36291;SDS011;22327;51.208;6.418;2023-03-19T02:55:11;2.90;;;2.03;;
36291;SDS011;22327;51.208;6.418;2023-03-19T02:57:36;2.25;;;1.65;;
36291;SDS011;22327;51.208;6.418;2023-03-19T03:00:02;3.28;;;1.92;;
36291;SDS011;22327;51.208;6.418;2023-03-19T03:02:29;3.40;;;1.85;;
36291;SDS011;22327;51.208;6.418;2023-03-19T03:04:55;2.97;;;1.88;;
36291;SDS011;22327;51.208;6.418;2023-03-19T03:07:21;5.05;;;2.50;;
36291;SDS011;22327;51.208;6.418;2023-03-19T03:09:46;3.90;;;2.03;;
36291;SDS011;22327;51.208;6.418;2023-03-19T03:12:12;2.60;;;1.75;;
36291;SDS011;22327;51.208;6.418;2023-03-19T03:14:38;4.78;;;2.08;;
36291;SDS011;22327;51.208;6.418;2023-03-19T03:17:04;2.25;;;1.77;;
36291;SDS011;22327;51.208;6.418;2023-03-19T03:19:32;2.83;;;2.03;;
36291;SDS011;22327;51.208;6.418;2023-03-19T03:21:57;3.30;;;2.15;;
36291;SDS011;22327;51.208;6.418;2023-03-19T03:24:24;3.03;;;2.00;;
36291;SDS011;22327;51.208;6.418;2023-03-19T03:26:50;3.42;;;1.95;;
36291;SDS011;22327;51.208;6.418;2023-03-19T03:29:15;3.08;;;2.00;;
36291;SDS011;22327;51.208;6.418;2023-03-19T03:31:41;2.67;;;2.00;;
36291;SDS011;22327;51.208;6.418;2023-03-19T03:34:06;2.70;;;1.90;;
36291;SDS011;22327;51.208;6.418;2023-03-19T03:36:32;3.15;;;1.65;;
36291;SDS011;22327;51.208;6.418;2023-03-19T03:38:57;2.85;;;1.52;;
36291;SDS011;22327;51.208;6.418;2023-03-19T03:41:23;3.28;;;2.13;;
36291;SDS011;22327;51.208;6.418;2023-03-19T03:43:49;4.15;;;1.98;;
36291;SDS011;22327;51.208;6.418;2023-03-19T03:46:15;4.30;;;1.92;;
36291;SDS011;22327;51.208;6.418;2023-03-19T03:48:41;3.53;;;2.05;;
36291;SDS011;22327;51.208;6.418;2023-03-19T03:51:07;3.65;;;1.98;;
36291;SDS011;22327;51.208;6.418;2023-03-19T03:53:32;2.28;;;1.88;;
36291;SDS011;22327;51.208;6.418;2023-03-19T03:55:58;4.75;;;2.33;;
36291;SDS011;22327;51.208;6.418;2023-03-19T03:58:24;2.55;;;1.85;;
36291;SDS011;22327;51.208;6.418;2023-03-19T04:00:50;3.70;;;1.92;;
36291;SDS011;22327;51.208;6.418;2023-03-19T04:03:16;4.75;;;2.10;;
36291;SDS011;22327;51.208;6.418;2023-03-19T04:05:42;4.07;;;1.88;;
36291;SDS011;22327;51.208;6.418;2023-03-19T04:08:08;2.75;;;1.70;;
36291;SDS011;22327;51.208;6.418;2023-03-19T04:10:33;1.92;;;1.73;;
36291;SDS011;22327;51.208;6.418;2023-03-19T04:13:00;2.90;;;1.60;;
36291;SDS011;22327;51.208;6.418;2023-03-19T04:15:26;2.63;;;2.40;;
36291;SDS011;22327;51.208;6.418;2023-03-19T04:17:52;4.07;;;2.05;;
36291;SDS011;22327;51.208;6.418;2023-03-19T04:20:18;4.63;;;2.20;;
36291;SDS011;22327;51.208;6.418;2023-03-19T04:22:44;3.22;;;1.70;;
36291;SDS011;22327;51.208;6.418;2023-03-19T04:25:09;6.55;;;2.28;;
36291;SDS011;22327;51.208;6.418;2023-03-19T04:27:35;4.82;;;1.88;;
36291;SDS011;22327;51.208;6.418;2023-03-19T04:30:01;4.03;;;2.05;;
36291;SDS011;22327;51.208;6.418;2023-03-19T04:32:27;3.83;;;1.92;;
36291;SDS011;22327;51.208;6.418;2023-03-19T04:34:52;2.72;;;2.10;;
36291;SDS011;22327;51.208;6.418;2023-03-19T04:37:18;3.03;;;2.25;;
36291;SDS011;22327;51.208;6.418;2023-03-19T04:39:43;4.18;;;1.90;;
36291;SDS011;22327;51.208;6.418;2023-03-19T04:44:36;2.22;;;1.92;;
36291;SDS011;22327;51.208;6.418;2023-03-19T04:47:03;3.47;;;2.35;;
36291;SDS011;22327;51.208;6.418;2023-03-19T04:49:29;4.68;;;2.35;;
36291;SDS011;22327;51.208;6.418;2023-03-19T04:51:55;4.65;;;2.38;;
36291;SDS011;22327;51.208;6.418;2023-03-19T04:54:21;3.63;;;2.40;;
36291;SDS011;22327;51.208;6.418;2023-03-19T04:56:48;3.78;;;2.42;;
36291;SDS011;22327;51.208;6.418;2023-03-19T04:59:14;5.38;;;3.03;;
36291;SDS011;22327;51.208;6.418;2023-03-19T05:01:39;3.97;;;2.60;;
36291;SDS011;22327;51.208;6.418;2023-03-19T05:04:05;3.35;;;2.90;;
36291;SDS011;22327;51.208;6.418;2023-03-19T05:06:31;3.75;;;2.75;;
36291;SDS011;22327;51.208;6.418;2023-03-19T05:08:57;5.30;;;3.10;;
36291;SDS011;22327;51.208;6.418;2023-03-19T05:11:22;5.90;;;4.28;;
36291;SDS011;22327;51.208;6.418;2023-03-19T05:13:48;5.22;;;3.22;;
36291;SDS011;22327;51.208;6.418;2023-03-19T05:16:14;4.90;;;3.40;;
36291;SDS011;22327;51.208;6.418;2023-03-19T05:18:39;5.65;;;3.67;;
36291;SDS011;22327;51.208;6.418;2023-03-19T05:21:05;5.75;;;3.75;;
36291;SDS011;22327;51.208;6.418;2023-03-19T05:23:34;5.10;;;4.18;;
36291;SDS011;22327;51.208;6.418;2023-03-19T05:25:59;4.88;;;4.00;;
36291;SDS011;22327;51.208;6.418;2023-03-19T05:28:25;7.32;;;4.15;;
36291;SDS011;22327;51.208;6.418;2023-03-19T05:30:51;5.50;;;4.45;;
36291;SDS011;22327;51.208;6.418;2023-03-19T05:33:17;5.43;;;3.95;;
36291;SDS011;22327;51.208;6.418;2023-03-19T05:35:42;6.38;;;4.10;;
36291;SDS011;22327;51.208;6.418;2023-03-19T05:38:08;4.85;;;3.58;;
36291;SDS011;22327;51.208;6.418;2023-03-19T05:40:35;5.47;;;3.97;;
36291;SDS011;22327;51.208;6.418;2023-03-19T05:43:01;5.03;;;3.97;;
36291;SDS011;22327;51.208;6.418;2023-03-19T05:45:26;6.32;;;4.38;;
36291;SDS011;22327;51.208;6.418;2023-03-19T05:47:52;7.18;;;4.40;;
36291;SDS011;22327;51.208;6.418;2023-03-19T05:50:17;7.57;;;4.68;;
36291;SDS011;22327;51.208;6.418;2023-03-19T05:52:44;6.35;;;4.53;;
36291;SDS011;22327;51.208;6.418;2023-03-19T05:55:10;5.50;;;4.45;;
36291;SDS011;22327;51.208;6.418;2023-03-19T05:57:36;5.60;;;4.57;;
36291;SDS011;22327;51.208;6.418;2023-03-19T06:00:02;5.82;;;4.57;;
36291;SDS011;22327;51.208;6.418;2023-03-19T06:02:30;8.05;;;4.55;;
36291;SDS011;22327;51.208;6.418;2023-03-19T06:04:56;6.20;;;4.32;;
36291;SDS011;22327;51.208;6.418;2023-03-19T06:07:21;6.93;;;4.65;;
36291;SDS011;22327;51.208;6.418;2023-03-19T06:09:47;4.35;;;3.90;;
36291;SDS011;22327;51.208;6.418;2023-03-19T06:12:12;4.63;;;4.20;;
36291;SDS011;22327;51.208;6.418;2023-03-19T06:14:38;8.02;;;4.50;;
36291;SDS011;22327;51.208;6.418;2023-03-19T06:17:03;5.80;;;4.05;;
36291;SDS011;22327;51.208;6.418;2023-03-19T06:19:29;5.22;;;4.40;;
36291;SDS011;22327;51.208;6.418;2023-03-19T06:21:54;5.32;;;4.30;;
36291;SDS011;22327;51.208;6.418;2023-03-19T06:24:20;6.30;;;4.10;;
36291;SDS011;22327;51.208;6.418;2023-03-19T06:26:45;5.03;;;3.97;;
36291;SDS011;22327;51.208;6.418;2023-03-19T06:29:11;6.93;;;4.43;;
36291;SDS011;22327;51.208;6.418;2023-03-19T06:31:36;5.80;;;4.30;;
36291;SDS011;22327;51.208;6.418;2023-03-19T06:34:03;4.35;;;3.95;;
36291;SDS011;22327;51.208;6.418;2023-03-19T06:36:29;7.28;;;4.38;;
36291;SDS011;22327;51.208;6.418;2023-03-19T06:38:55;7.25;;;4.50;;
36291;SDS011;22327;51.208;6.418;2023-03-19T06:41:21;5.05;;;4.00;;
36291;SDS011;22327;51.208;6.418;2023-03-19T06:43:48;5.70;;;4.25;;
36291;SDS011;22327;51.208;6.418;2023-03-19T06:46:14;4.43;;;3.67;;
36291;SDS011;22327;51.208;6.418;2023-03-19T06:48:39;6.75;;;4.43;;
36291;SDS011;22327;51.208;6.418;2023-03-19T06:51:05;4.13;;;3.67;;
36291;SDS011;22327;51.208;6.418;2023-03-19T06:53:31;4.10;;;3.40;;
36291;SDS011;22327;51.208;6.418;2023-03-19T06:55:57;4.13;;;3.42;;
36291;SDS011;22327;51.208;6.418;2023-03-19T06:58:22;3.70;;;3.35;;
36291;SDS011;22327;51.208;6.418;2023-03-19T07:00:48;3.53;;;3.22;;
36291;SDS011;22327;51.208;6.418;2023-03-19T07:03:14;3.65;;;3.22;;
36291;SDS011;22327;51.208;6.418;2023-03-19T07:05:40;3.50;;;3.10;;
36291;SDS011;22327;51.208;6.418;2023-03-19T07:08:05;3.50;;;3.20;;
36291;SDS011;22327;51.208;6.418;2023-03-19T07:10:36;4.93;;;2.75;;
36291;SDS011;22327;51.208;6.418;2023-03-19T07:13:04;4.18;;;2.45;;
36291;SDS011;22327;51.208;6.418;2023-03-19T07:15:29;2.80;;;2.50;;
36291;SDS011;22327;51.208;6.418;2023-03-19T07:17:55;3.22;;;2.63;;
36291;SDS011;22327;51.208;6.418;2023-03-19T07:20:21;2.90;;;2.60;;
36291;SDS011;22327;51.208;6.418;2023-03-19T07:22:48;3.10;;;2.80;;
36291;SDS011;22327;51.208;6.418;2023-03-19T07:25:15;3.72;;;2.78;;
36291;SDS011;22327;51.208;6.418;2023-03-19T07:27:40;4.40;;;2.80;;
36291;SDS011;22327;51.208;6.418;2023-03-19T07:30:06;3.25;;;2.70;;
36291;SDS011;22327;51.208;6.418;2023-03-19T07:32:32;4.32;;;3.13;;
36291;SDS011;22327;51.208;6.418;2023-03-19T07:34:57;3.47;;;3.03;;
36291;SDS011;22327;51.208;6.418;2023-03-19T07:37:23;3.60;;;3.28;;
36291;SDS011;22327;51.208;6.418;2023-03-19T07:39:48;3.50;;;3.20;;
36291;SDS011;22327;51.208;6.418;2023-03-19T07:42:14;3.53;;;3.22;;
36291;SDS011;22327;51.208;6.418;2023-03-19T07:44:40;4.35;;;3.50;;
36291;SDS011;22327;51.208;6.418;2023-03-19T07:47:06;3.22;;;2.92;;
36291;SDS011;22327;51.208;6.418;2023-03-19T07:49:31;3.30;;;2.92;;
36291;SDS011;22327;51.208;6.418;2023-03-19T07:51:57;3.58;;;3.28;;
36291;SDS011;22327;51.208;6.418;2023-03-19T07:54:22;3.58;;;3.05;;
36291;SDS011;22327;51.208;6.418;2023-03-19T07:56:48;4.00;;;3.03;;
36291;SDS011;22327;51.208;6.418;2023-03-19T07:59:13;3.38;;;2.90;;
36291;SDS011;22327;51.208;6.418;2023-03-19T08:01:39;3.03;;;2.72;;
36291;SDS011;22327;51.208;6.418;2023-03-19T08:04:06;3.30;;;2.65;;
36291;SDS011;22327;51.208;6.418;2023-03-19T08:06:32;3.10;;;2.80;;
36291;SDS011;22327;51.208;6.418;2023-03-19T08:08:58;4.80;;;3.65;;
36291;SDS011;22327;51.208;6.418;2023-03-19T08:11:23;2.78;;;2.58;;
36291;SDS011;22327;51.208;6.418;2023-03-19T08:13:49;3.70;;;2.92;;
36291;SDS011;22327;51.208;6.418;2023-03-19T08:16:14;3.22;;;2.92;;
36291;SDS011;22327;51.208;6.418;2023-03-19T08:18:40;4.55;;;2.92;;
36291;SDS011;22327;51.208;6.418;2023-03-19T08:21:06;3.72;;;3.10;;
36291;SDS011;22327;51.208;6.418;2023-03-19T08:23:32;3.00;;;2.70;;
36291;SDS011;22327;51.208;6.418;2023-03-19T08:25:57;4.05;;;3.10;;
36291;SDS011;22327;51.208;6.418;2023-03-19T08:28:25;3.88;;;2.80;;
36291;SDS011;22327;51.208;6.418;2023-03-19T08:30:51;3.90;;;3.47;;
36291;SDS011;22327;51.208;6.418;2023-03-19T08:33:16;3.30;;;3.00;;
36291;SDS011;22327;51.208;6.418;2023-03-19T08:35:42;3.42;;;3.13;;
36291;SDS011;22327;51.208;6.418;2023-03-19T08:38:07;2.50;;;2.30;;
36291;SDS011;22327;51.208;6.418;2023-03-19T08:40:34;3.25;;;2.95;;
36291;SDS011;22327;51.208;6.418;2023-03-19T08:42:59;3.30;;;3.00;;
36291;SDS011;22327;51.208;6.418;2023-03-19T08:45:25;3.65;;;3.20;;
36291;SDS011;22327;51.208;6.418;2023-03-19T08:47:50;4.75;;;3.10;;
36291;SDS011;22327;51.208;6.418;2023-03-19T08:50:16;3.20;;;2.90;;
36291;SDS011;22327;51.208;6.418;2023-03-19T08:52:42;3.38;;;3.08;;
36291;SDS011;22327;51.208;6.418;2023-03-19T08:55:08;3.38;;;2.97;;
36291;SDS011;22327;51.208;6.418;2023-03-19T08:57:35;3.20;;;2.90;;
36291;SDS011;22327;51.208;6.418;2023-03-19T09:00:01;3.60;;;2.60;;
36291;SDS011;22327;51.208;6.418;2023-03-19T09:02:29;3.45;;;2.97;;
36291;SDS011;22327;51.208;6.418;2023-03-19T09:04:55;3.92;;;3.53;;
36291;SDS011;22327;51.208;6.418;2023-03-19T09:07:20;3.17;;;2.88;;
36291;SDS011;22327;51.208;6.418;2023-03-19T09:09:46;4.13;;;3.30;;
36291;SDS011;22327;51.208;6.418;2023-03-19T09:12:13;3.90;;;3.50;;
36291;SDS011;22327;51.208;6.418;2023-03-19T09:14:40;4.82;;;3.33;;
36291;SDS011;22327;51.208;6.418;2023-03-19T09:17:07;3.38;;;3.03;;
36291;SDS011;22327;51.208;6.418;2023-03-19T09:19:33;3.83;;;3.53;;
36291;SDS011;22327;51.208;6.418;2023-03-19T09:21:59;3.50;;;3.20;;
36291;SDS011;22327;51.208;6.418;2023-03-19T09:24:25;3.75;;;3.45;;
36291;SDS011;22327;51.208;6.418;2023-03-19T09:26:51;3.70;;;3.40;;
36291;SDS011;22327;51.208;6.418;2023-03-19T09:29:16;3.97;;;3.30;;
36291;SDS011;22327;51.208;6.418;2023-03-19T09:31:42;4.15;;;3.60;;
36291;SDS011;22327;51.208;6.418;2023-03-19T09:34:08;3.80;;;3.20;;
36291;SDS011;22327;51.208;6.418;2023-03-19T09:36:35;4.15;;;3.70;;
36291;SDS011;22327;51.208;6.418;2023-03-19T09:39:02;5.10;;;3.83;;
36291;SDS011;22327;51.208;6.418;2023-03-19T09:44:13;3.60;;;3.30;;
36291;SDS011;22327;51.208;6.418;2023-03-19T09:46:45;3.83;;;3.20;;
36291;SDS011;22327;51.208;6.418;2023-03-19T09:49:24;3.90;;;3.50;;
36291;SDS011;22327;51.208;6.418;2023-03-19T09:52:01;4.00;;;3.65;;
36291;SDS011;22327;51.208;6.418;2023-03-19T09:55:04;3.08;;;2.83;;
36291;SDS011;22327;51.208;6.418;2023-03-19T09:57:54;2.30;;;2.10;;
36291;SDS011;22327;51.208;6.418;2023-03-19T10:00:25;2.88;;;2.67;;
36291;SDS011;22327;51.208;6.418;2023-03-19T10:08:36;2.70;;;2.50;;
36291;SDS011;22327;51.208;6.418;2023-03-19T10:11:14;2.40;;;2.17;;
36291;SDS011;22327;51.208;6.418;2023-03-19T10:14:13;2.25;;;2.00;;
36291;SDS011;22327;51.208;6.418;2023-03-19T10:16:43;2.95;;;2.53;;
36291;SDS011;22327;51.208;6.418;2023-03-19T10:19:11;4.07;;;2.58;;
36291;SDS011;22327;51.208;6.418;2023-03-19T10:21:44;2.35;;;2.15;;
36291;SDS011;22327;51.208;6.418;2023-03-19T10:24:29;2.42;;;2.22;;
36291;SDS011;22327;51.208;6.418;2023-03-19T10:27:04;2.83;;;2.53;;
36291;SDS011;22327;51.208;6.418;2023-03-19T10:29:36;2.83;;;2.53;;
36291;SDS011;22327;51.208;6.418;2023-03-19T10:32:10;3.05;;;2.22;;
36291;SDS011;22327;51.208;6.418;2023-03-19T10:34:50;2.13;;;1.48;;
36291;SDS011;22327;51.208;6.418;2023-03-19T10:37:22;1.55;;;1.30;;
36291;SDS011;22327;51.208;6.418;2023-03-19T10:39:51;1.70;;;1.50;;
36291;SDS011;22327;51.208;6.418;2023-03-19T10:47:45;2.63;;;1.60;;
36291;SDS011;22327;51.208;6.418;2023-03-19T10:50:15;3.05;;;1.98;;
36291;SDS011;22327;51.208;6.418;2023-03-19T10:52:43;2.20;;;2.00;;
36291;SDS011;22327;51.208;6.418;2023-03-19T10:55:16;3.55;;;1.60;;
36291;SDS011;22327;51.208;6.418;2023-03-19T10:57:48;2.28;;;1.63;;
36291;SDS011;22327;51.208;6.418;2023-03-19T11:00:22;1.75;;;1.42;;
36291;SDS011;22327;51.208;6.418;2023-03-19T11:02:50;1.77;;;1.13;;
36291;SDS011;22327;51.208;6.418;2023-03-19T11:07:49;1.00;;;0.90;;
36291;SDS011;22327;51.208;6.418;2023-03-19T11:10:19;1.63;;;0.75;;
36291;SDS011;22327;51.208;6.418;2023-03-19T11:12:51;2.00;;;1.63;;
36291;SDS011;22327;51.208;6.418;2023-03-19T11:15:20;1.00;;;0.90;;
36291;SDS011;22327;51.208;6.418;2023-03-19T11:17:57;2.55;;;1.30;;
36291;SDS011;22327;51.208;6.418;2023-03-19T11:22:57;2.33;;;1.40;;
36291;SDS011;22327;51.208;6.418;2023-03-19T11:28:01;2.22;;;1.27;;
36291;SDS011;22327;51.208;6.418;2023-03-19T11:30:54;1.80;;;1.50;;
36291;SDS011;22327;51.208;6.418;2023-03-19T11:39:08;1.80;;;1.60;;
36291;SDS011;22327;51.208;6.418;2023-03-19T11:44:52;1.10;;;1.00;;
36291;SDS011;22327;51.208;6.418;2023-03-19T11:47:38;1.42;;;1.00;;
36291;SDS011;22327;51.208;6.418;2023-03-19T11:50:13;1.85;;;1.13;;
36291;SDS011;22327;51.208;6.418;2023-03-19T11:52:58;1.73;;;1.40;;
36291;SDS011;22327;51.208;6.418;2023-03-19T12:04:20;2.20;;;1.20;;
36291;SDS011;22327;51.208;6.418;2023-03-19T12:07:08;2.33;;;1.70;;
36291;SDS011;22327;51.208;6.418;2023-03-19T12:09:55;3.38;;;2.20;;
36291;SDS011;22327;51.208;6.418;2023-03-19T12:12:42;2.47;;;1.83;;
36291;SDS011;22327;51.208;6.418;2023-03-19T12:21:26;3.13;;;1.60;;
36291;SDS011;22327;51.208;6.418;2023-03-19T12:29:17;2.40;;;2.17;;
36291;SDS011;22327;51.208;6.418;2023-03-19T12:35:00;2.67;;;1.83;;
36291;SDS011;22327;51.208;6.418;2023-03-19T12:37:37;3.80;;;1.75;;
36291;SDS011;22327;51.208;6.418;2023-03-19T12:42:58;1.67;;;1.42;;
36291;SDS011;22327;51.208;6.418;2023-03-19T12:45:33;2.10;;;1.90;;
36291;SDS011;22327;51.208;6.418;2023-03-19T12:48:14;3.75;;;2.50;;
36291;SDS011;22327;51.208;6.418;2023-03-19T12:50:46;3.03;;;2.67;;
36291;SDS011;22327;51.208;6.418;2023-03-19T12:53:30;3.75;;;2.55;;
36291;SDS011;22327;51.208;6.418;2023-03-19T12:56:01;4.50;;;2.42;;
36291;SDS011;22327;51.208;6.418;2023-03-19T13:01:10;2.13;;;1.92;;
36291;SDS011;22327;51.208;6.418;2023-03-19T13:06:35;3.58;;;2.28;;
36291;SDS011;22327;51.208;6.418;2023-03-19T13:09:48;2.53;;;2.33;;
36291;SDS011;22327;51.208;6.418;2023-03-19T13:11:57;4.57;;;2.92;;
36291;SDS011;22327;51.208;6.418;2023-03-19T13:14:47;2.95;;;2.22;;
36291;SDS011;22327;51.208;6.418;2023-03-19T13:19:52;2.78;;;2.30;;
36291;SDS011;22327;51.208;6.418;2023-03-19T13:22:30;3.22;;;2.67;;
36291;SDS011;22327;51.208;6.418;2023-03-19T13:24:59;2.60;;;2.35;;
36291;SDS011;22327;51.208;6.418;2023-03-19T13:27:29;2.17;;;1.98;;
36291;SDS011;22327;51.208;6.418;2023-03-19T13:40:55;2.40;;;2.03;;
36291;SDS011;22327;51.208;6.418;2023-03-19T13:43:21;1.80;;;1.70;;
36291;SDS011;22327;51.208;6.418;2023-03-19T13:45:50;2.53;;;1.83;;
36291;SDS011;22327;51.208;6.418;2023-03-19T13:49:08;2.25;;;1.90;;
36291;SDS011;22327;51.208;6.418;2023-03-19T13:59:35;2.67;;;1.50;;
36291;SDS011;22327;51.208;6.418;2023-03-19T14:07:29;12.25;;;7.70;;
36291;SDS011;22327;51.208;6.418;2023-03-19T14:15:02;3.58;;;2.33;;
36291;SDS011;22327;51.208;6.418;2023-03-19T14:17:44;6.13;;;2.95;;
36291;SDS011;22327;51.208;6.418;2023-03-19T14:31:00;2.85;;;2.58;;
36291;SDS011;22327;51.208;6.418;2023-03-19T14:33:43;8.32;;;4.78;;
36291;SDS011;22327;51.208;6.418;2023-03-19T14:36:19;2.92;;;2.13;;
36291;SDS011;22327;51.208;6.418;2023-03-19T14:38:54;2.80;;;1.83;;
36291;SDS011;22327;51.208;6.418;2023-03-19T14:41:22;3.05;;;1.88;;
36291;SDS011;22327;51.208;6.418;2023-03-19T14:46:27;3.03;;;1.67;;
36291;SDS011;22327;51.208;6.418;2023-03-19T14:57:18;1.95;;;1.20;;
36291;SDS011;22327;51.208;6.418;2023-03-19T14:59:47;1.40;;;1.13;;
36291;SDS011;22327;51.208;6.418;2023-03-19T15:02:18;3.05;;;1.67;;
36291;SDS011;22327;51.208;6.418;2023-03-19T15:04:44;2.15;;;1.95;;
36291;SDS011;22327;51.208;6.418;2023-03-19T15:07:17;2.90;;;2.25;;
36291;SDS011;22327;51.208;6.418;2023-03-19T15:09:54;3.10;;;2.60;;
36291;SDS011;22327;51.208;6.418;2023-03-19T15:20:20;2.50;;;1.60;;
36291;SDS011;22327;51.208;6.418;2023-03-19T15:22:58;1.88;;;1.30;;
36291;SDS011;22327;51.208;6.418;2023-03-19T15:25:26;1.98;;;1.33;;
36291;SDS011;22327;51.208;6.418;2023-03-19T15:28:09;1.83;;;1.60;;
36291;SDS011;22327;51.208;6.418;2023-03-19T15:30:36;2.60;;;1.90;;
36291;SDS011;22327;51.208;6.418;2023-03-19T15:33:03;2.63;;;1.60;;
36291;SDS011;22327;51.208;6.418;2023-03-19T15:35:41;1.90;;;1.40;;
36291;SDS011;22327;51.208;6.418;2023-03-19T15:38:08;2.90;;;1.60;;
36291;SDS011;22327;51.208;6.418;2023-03-19T15:40:35;2.53;;;1.95;;
36291;SDS011;22327;51.208;6.418;2023-03-19T15:43:03;2.00;;;1.67;;
36291;SDS011;22327;51.208;6.418;2023-03-19T15:45:29;2.53;;;2.00;;
36291;SDS011;22327;51.208;6.418;2023-03-19T15:48:10;4.18;;;1.73;;
36291;SDS011;22327;51.208;6.418;2023-03-19T15:50:44;2.58;;;2.22;;
36291;SDS011;22327;51.208;6.418;2023-03-19T15:53:13;3.05;;;1.80;;
36291;SDS011;22327;51.208;6.418;2023-03-19T15:55:46;3.30;;;2.30;;
36291;SDS011;22327;51.208;6.418;2023-03-19T15:58:15;4.80;;;3.13;;
36291;SDS011;22327;51.208;6.418;2023-03-19T16:00:52;2.70;;;2.50;;
36291;SDS011;22327;51.208;6.418;2023-03-19T16:03:23;4.03;;;2.50;;
36291;SDS011;22327;51.208;6.418;2023-03-19T16:06:00;3.70;;;2.58;;
36291;SDS011;22327;51.208;6.418;2023-03-19T16:08:28;3.50;;;2.88;;
36291;SDS011;22327;51.208;6.418;2023-03-19T16:10:54;3.67;;;2.88;;
36291;SDS011;22327;51.208;6.418;2023-03-19T16:13:39;3.45;;;2.38;;
36291;SDS011;22327;51.208;6.418;2023-03-19T16:18:41;6.40;;;2.60;;
36291;SDS011;22327;51.208;6.418;2023-03-19T16:21:08;3.60;;;2.60;;
36291;SDS011;22327;51.208;6.418;2023-03-19T16:23:42;5.57;;;2.95;;
36291;SDS011;22327;51.208;6.418;2023-03-19T16:26:24;4.97;;;2.70;;
36291;SDS011;22327;51.208;6.418;2023-03-19T16:29:14;5.47;;;2.90;;
36291;SDS011;22327;51.208;6.418;2023-03-19T16:31:48;5.03;;;3.20;;
36291;SDS011;22327;51.208;6.418;2023-03-19T16:37:24;6.28;;;3.97;;
36291;SDS011;22327;51.208;6.418;2023-03-19T16:40:07;6.03;;;4.20;;
36291;SDS011;22327;51.208;6.418;2023-03-19T16:42:52;4.80;;;3.30;;
36291;SDS011;22327;51.208;6.418;2023-03-19T16:45:27;3.85;;;3.08;;
36291;SDS011;22327;51.208;6.418;2023-03-19T16:47:55;6.65;;;2.88;;
36291;SDS011;22327;51.208;6.418;2023-03-19T16:50:29;7.10;;;2.50;;
36291;SDS011;22327;51.208;6.418;2023-03-19T16:53:03;5.32;;;2.33;;
36291;SDS011;22327;51.208;6.418;2023-03-19T16:55:34;4.43;;;1.90;;
36291;SDS011;22327;51.208;6.418;2023-03-19T16:58:09;6.40;;;3.17;;
36291;SDS011;22327;51.208;6.418;2023-03-19T17:00:41;6.00;;;2.53;;
36291;SDS011;22327;51.208;6.418;2023-03-19T17:03:11;3.67;;;2.28;;
36291;SDS011;22327;51.208;6.418;2023-03-19T17:05:41;6.72;;;2.92;;
36291;SDS011;22327;51.208;6.418;2023-03-19T17:08:07;5.63;;;2.42;;
36291;SDS011;22327;51.208;6.418;2023-03-19T17:10:33;6.22;;;2.60;;
36291;SDS011;22327;51.208;6.418;2023-03-19T17:13:00;7.18;;;2.70;;